sensor_id;sensor_type;location;lat;lon;timestamp;P1;durP1;ratioP1;P2;durP2;ratioP2
22502;SDS011;11418;48.118;9.992;2023-08-12T00:02:42;9.57;;;7.03;;
22502;SDS011;11418;48.118;9.992;2023-08-12T00:06:43;9.73;;;8.00;;
22502;SDS011;11418;48.118;9.992;2023-08-12T00:10:44;9.52;;;8.13;;
22502;SDS011;11418;48.118;9.992;2023-08-12T00:14:44;8.68;;;7.63;;
22502;SDS011;11418;48.118;9.992;2023-08-12T00:18:45;10.15;;;8.25;;
22502;SDS011;11418;48.118;9.992;2023-08-12T00:22:45;9.15;;;7.78;;
22502;SDS011;11418;48.118;9.992;2023-08-12T00:26:46;16.52;;;8.50;;
22502;SDS011;11418;48.118;9.992;2023-08-12T00:30:47;10.05;;;8.95;;
22502;SDS011;11418;48.118;9.992;2023-08-12T00:34:48;10.88;;;8.30;;
22502;SDS011;11418;48.118;9.992;2023-08-12T00:38:49;10.07;;;8.20;;
22502;SDS011;11418;48.118;9.992;2023-08-12T00:42:49;8.15;;;7.25;;
22502;SDS011;11418;48.118;9.992;2023-08-12T00:46:50;11.48;;;9.40;;
22502;SDS011;11418;48.118;9.992;2023-08-12T00:50:51;10.10;;;7.68;;
22502;SDS011;11418;48.118;9.992;2023-08-12T00:54:52;10.23;;;8.55;;
22502;SDS011;11418;48.118;9.992;2023-08-12T00:58:53;9.90;;;7.90;;
22502;SDS011;11418;48.118;9.992;2023-08-12T01:02:53;9.65;;;8.65;;
22502;SDS011;11418;48.118;9.992;2023-08-12T01:06:55;10.25;;;7.22;;
22502;SDS011;11418;48.118;9.992;2023-08-12T01:10:58;7.93;;;6.82;;
22502;SDS011;11418;48.118;9.992;2023-08-12T01:15:07;9.63;;;6.57;;
22502;SDS011;11418;48.118;9.992;2023-08-12T01:19:11;8.65;;;7.30;;
22502;SDS011;11418;48.118;9.992;2023-08-12T01:23:32;9.07;;;7.00;;
22502;SDS011;11418;48.118;9.992;2023-08-12T01:27:34;9.60;;;8.18;;
22502;SDS011;11418;48.118;9.992;2023-08-12T01:31:40;9.75;;;7.07;;
22502;SDS011;11418;48.118;9.992;2023-08-12T01:35:50;10.50;;;7.80;;
22502;SDS011;11418;48.118;9.992;2023-08-12T01:39:56;9.98;;;7.15;;
22502;SDS011;11418;48.118;9.992;2023-08-12T01:43:58;11.80;;;8.57;;
22502;SDS011;11418;48.118;9.992;2023-08-12T01:47:59;13.57;;;9.52;;
22502;SDS011;11418;48.118;9.992;2023-08-12T01:52:00;11.23;;;8.70;;
22502;SDS011;11418;48.118;9.992;2023-08-12T01:56:00;10.57;;;9.20;;
22502;SDS011;11418;48.118;9.992;2023-08-12T02:00:01;9.45;;;8.35;;
22502;SDS011;11418;48.118;9.992;2023-08-12T02:04:02;7.72;;;6.53;;
22502;SDS011;11418;48.118;9.992;2023-08-12T02:08:03;13.18;;;7.13;;
22502;SDS011;11418;48.118;9.992;2023-08-12T02:12:05;9.05;;;7.20;;
22502;SDS011;11418;48.118;9.992;2023-08-12T02:16:06;10.40;;;7.32;;
22502;SDS011;11418;48.118;9.992;2023-08-12T02:20:06;10.75;;;7.85;;
22502;SDS011;11418;48.118;9.992;2023-08-12T02:24:07;12.05;;;7.30;;
22502;SDS011;11418;48.118;9.992;2023-08-12T02:28:08;12.02;;;7.90;;
22502;SDS011;11418;48.118;9.992;2023-08-12T02:32:09;10.85;;;8.02;;
22502;SDS011;11418;48.118;9.992;2023-08-12T02:36:09;10.68;;;9.13;;
22502;SDS011;11418;48.118;9.992;2023-08-12T02:40:10;11.27;;;7.72;;
22502;SDS011;11418;48.118;9.992;2023-08-12T02:44:11;8.73;;;7.82;;
22502;SDS011;11418;48.118;9.992;2023-08-12T02:48:11;7.50;;;6.65;;
22502;SDS011;11418;48.118;9.992;2023-08-12T02:52:12;13.07;;;7.13;;
22502;SDS011;11418;48.118;9.992;2023-08-12T02:56:12;17.90;;;7.85;;
22502;SDS011;11418;48.118;9.992;2023-08-12T03:00:13;9.75;;;7.68;;
22502;SDS011;11418;48.118;9.992;2023-08-12T03:04:14;13.20;;;8.25;;
22502;SDS011;11418;48.118;9.992;2023-08-12T03:08:14;14.23;;;7.95;;
22502;SDS011;11418;48.118;9.992;2023-08-12T03:12:15;12.65;;;8.27;;
22502;SDS011;11418;48.118;9.992;2023-08-12T03:16:16;12.68;;;8.48;;
22502;SDS011;11418;48.118;9.992;2023-08-12T03:20:16;8.63;;;6.90;;
22502;SDS011;11418;48.118;9.992;2023-08-12T03:24:17;9.63;;;7.32;;
22502;SDS011;11418;48.118;9.992;2023-08-12T03:28:17;11.18;;;8.15;;
22502;SDS011;11418;48.118;9.992;2023-08-12T03:32:18;12.60;;;7.68;;
22502;SDS011;11418;48.118;9.992;2023-08-12T03:36:18;9.10;;;8.10;;
22502;SDS011;11418;48.118;9.992;2023-08-12T03:40:19;11.43;;;7.65;;
22502;SDS011;11418;48.118;9.992;2023-08-12T03:44:19;11.63;;;7.97;;
22502;SDS011;11418;48.118;9.992;2023-08-12T03:48:20;10.50;;;7.07;;
22502;SDS011;11418;48.118;9.992;2023-08-12T03:52:20;9.07;;;6.30;;
22502;SDS011;11418;48.118;9.992;2023-08-12T03:56:21;9.13;;;6.78;;
22502;SDS011;11418;48.118;9.992;2023-08-12T04:00:21;9.90;;;7.22;;
22502;SDS011;11418;48.118;9.992;2023-08-12T04:04:22;7.50;;;6.53;;
22502;SDS011;11418;48.118;9.992;2023-08-12T04:08:23;8.88;;;6.47;;
22502;SDS011;11418;48.118;9.992;2023-08-12T04:12:24;9.05;;;7.00;;
22502;SDS011;11418;48.118;9.992;2023-08-12T04:16:25;8.90;;;6.72;;
22502;SDS011;11418;48.118;9.992;2023-08-12T04:20:25;8.43;;;7.10;;
22502;SDS011;11418;48.118;9.992;2023-08-12T04:24:26;8.10;;;7.30;;
22502;SDS011;11418;48.118;9.992;2023-08-12T04:28:26;9.32;;;6.85;;
22502;SDS011;11418;48.118;9.992;2023-08-12T04:32:27;8.25;;;7.32;;
22502;SDS011;11418;48.118;9.992;2023-08-12T04:36:27;12.80;;;7.18;;
22502;SDS011;11418;48.118;9.992;2023-08-12T04:40:29;7.55;;;6.53;;
22502;SDS011;11418;48.118;9.992;2023-08-12T04:44:30;9.43;;;7.22;;
22502;SDS011;11418;48.118;9.992;2023-08-12T04:48:30;9.57;;;6.40;;
22502;SDS011;11418;48.118;9.992;2023-08-12T04:52:31;9.20;;;6.43;;
22502;SDS011;11418;48.118;9.992;2023-08-12T04:56:32;8.77;;;6.07;;
22502;SDS011;11418;48.118;9.992;2023-08-12T05:00:32;6.30;;;5.40;;
22502;SDS011;11418;48.118;9.992;2023-08-12T05:04:33;7.10;;;5.40;;
22502;SDS011;11418;48.118;9.992;2023-08-12T05:08:34;7.22;;;5.38;;
22502;SDS011;11418;48.118;9.992;2023-08-12T05:12:34;6.75;;;5.90;;
22502;SDS011;11418;48.118;9.992;2023-08-12T05:16:35;8.60;;;5.40;;
22502;SDS011;11418;48.118;9.992;2023-08-12T05:20:35;7.55;;;5.00;;
22502;SDS011;11418;48.118;9.992;2023-08-12T05:24:36;7.90;;;5.35;;
22502;SDS011;11418;48.118;9.992;2023-08-12T05:28:36;7.97;;;5.70;;
22502;SDS011;11418;48.118;9.992;2023-08-12T05:32:37;6.47;;;5.32;;
22502;SDS011;11418;48.118;9.992;2023-08-12T05:36:37;6.35;;;5.38;;
22502;SDS011;11418;48.118;9.992;2023-08-12T05:40:38;6.32;;;5.15;;
22502;SDS011;11418;48.118;9.992;2023-08-12T05:44:40;7.45;;;5.82;;
22502;SDS011;11418;48.118;9.992;2023-08-12T05:48:41;8.10;;;5.30;;
22502;SDS011;11418;48.118;9.992;2023-08-12T05:52:43;7.40;;;5.65;;
22502;SDS011;11418;48.118;9.992;2023-08-12T05:56:43;5.43;;;4.90;;
22502;SDS011;11418;48.118;9.992;2023-08-12T06:00:44;5.38;;;4.65;;
22502;SDS011;11418;48.118;9.992;2023-08-12T06:04:45;5.97;;;5.28;;
22502;SDS011;11418;48.118;9.992;2023-08-12T06:08:46;5.70;;;4.70;;
22502;SDS011;11418;48.118;9.992;2023-08-12T06:12:46;5.35;;;4.85;;
22502;SDS011;11418;48.118;9.992;2023-08-12T06:16:47;6.88;;;4.57;;
22502;SDS011;11418;48.118;9.992;2023-08-12T06:20:47;6.85;;;4.82;;
22502;SDS011;11418;48.118;9.992;2023-08-12T06:24:48;8.43;;;4.50;;
22502;SDS011;11418;48.118;9.992;2023-08-12T06:28:48;6.68;;;4.90;;
22502;SDS011;11418;48.118;9.992;2023-08-12T06:32:49;6.10;;;4.68;;
22502;SDS011;11418;48.118;9.992;2023-08-12T06:36:50;6.40;;;4.50;;
22502;SDS011;11418;48.118;9.992;2023-08-12T06:40:50;5.55;;;4.43;;
22502;SDS011;11418;48.118;9.992;2023-08-12T06:44:54;6.55;;;4.68;;
22502;SDS011;11418;48.118;9.992;2023-08-12T06:48:56;5.45;;;4.55;;
22502;SDS011;11418;48.118;9.992;2023-08-12T06:52:57;7.18;;;4.32;;
22502;SDS011;11418;48.118;9.992;2023-08-12T06:56:58;6.07;;;4.22;;
22502;SDS011;11418;48.118;9.992;2023-08-12T07:00:58;6.05;;;4.70;;
22502;SDS011;11418;48.118;9.992;2023-08-12T07:04:59;7.75;;;4.47;;
22502;SDS011;11418;48.118;9.992;2023-08-12T07:09:00;5.90;;;4.68;;
22502;SDS011;11418;48.118;9.992;2023-08-12T07:13:00;6.45;;;4.70;;
22502;SDS011;11418;48.118;9.992;2023-08-12T07:17:01;6.32;;;4.50;;
22502;SDS011;11418;48.118;9.992;2023-08-12T07:21:01;6.50;;;5.10;;
22502;SDS011;11418;48.118;9.992;2023-08-12T07:25:02;6.43;;;5.20;;
22502;SDS011;11418;48.118;9.992;2023-08-12T07:29:03;7.55;;;4.93;;
22502;SDS011;11418;48.118;9.992;2023-08-12T07:33:04;5.95;;;4.72;;
22502;SDS011;11418;48.118;9.992;2023-08-12T07:37:05;6.22;;;4.30;;
22502;SDS011;11418;48.118;9.992;2023-08-12T07:41:06;5.57;;;4.10;;
22502;SDS011;11418;48.118;9.992;2023-08-12T07:45:06;5.80;;;4.28;;
22502;SDS011;11418;48.118;9.992;2023-08-12T07:49:08;4.15;;;3.70;;
22502;SDS011;11418;48.118;9.992;2023-08-12T07:53:10;6.03;;;4.15;;
22502;SDS011;11418;48.118;9.992;2023-08-12T07:57:10;6.88;;;3.72;;
22502;SDS011;11418;48.118;9.992;2023-08-12T08:01:11;6.65;;;3.97;;
22502;SDS011;11418;48.118;9.992;2023-08-12T08:05:11;5.38;;;3.97;;
22502;SDS011;11418;48.118;9.992;2023-08-12T08:09:12;4.90;;;3.83;;
22502;SDS011;11418;48.118;9.992;2023-08-12T08:13:12;5.85;;;3.63;;
22502;SDS011;11418;48.118;9.992;2023-08-12T08:17:13;6.82;;;4.20;;
22502;SDS011;11418;48.118;9.992;2023-08-12T08:21:14;3.97;;;3.58;;
22502;SDS011;11418;48.118;9.992;2023-08-12T08:25:14;5.32;;;3.83;;
22502;SDS011;11418;48.118;9.992;2023-08-12T08:29:15;4.60;;;3.33;;
22502;SDS011;11418;48.118;9.992;2023-08-12T08:33:15;13.82;;;3.70;;
22502;SDS011;11418;48.118;9.992;2023-08-12T08:37:16;5.40;;;4.00;;
22502;SDS011;11418;48.118;9.992;2023-08-12T08:41:16;5.30;;;4.25;;
22502;SDS011;11418;48.118;9.992;2023-08-12T08:45:17;5.93;;;4.15;;
22502;SDS011;11418;48.118;9.992;2023-08-12T08:49:18;6.03;;;4.22;;
22502;SDS011;11418;48.118;9.992;2023-08-12T08:53:19;6.70;;;4.03;;
22502;SDS011;11418;48.118;9.992;2023-08-12T08:57:20;7.97;;;4.25;;
22502;SDS011;11418;48.118;9.992;2023-08-12T09:01:21;7.53;;;4.40;;
22502;SDS011;11418;48.118;9.992;2023-08-12T09:05:22;5.75;;;4.50;;
22502;SDS011;11418;48.118;9.992;2023-08-12T09:09:24;7.25;;;4.13;;
22502;SDS011;11418;48.118;9.992;2023-08-12T09:13:25;5.13;;;3.80;;
22502;SDS011;11418;48.118;9.992;2023-08-12T09:17:27;4.43;;;3.95;;
22502;SDS011;11418;48.118;9.992;2023-08-12T09:21:27;5.57;;;3.53;;
22502;SDS011;11418;48.118;9.992;2023-08-12T09:25:29;4.65;;;3.50;;
22502;SDS011;11418;48.118;9.992;2023-08-12T09:29:33;7.20;;;4.20;;
22502;SDS011;11418;48.118;9.992;2023-08-12T09:33:38;3.47;;;3.17;;
22502;SDS011;11418;48.118;9.992;2023-08-12T09:37:40;5.03;;;3.03;;
22502;SDS011;11418;48.118;9.992;2023-08-12T09:41:41;5.85;;;3.42;;
22502;SDS011;11418;48.118;9.992;2023-08-12T09:45:43;5.47;;;3.85;;
22502;SDS011;11418;48.118;9.992;2023-08-12T09:49:44;4.00;;;3.60;;
22502;SDS011;11418;48.118;9.992;2023-08-12T09:53:46;3.95;;;3.30;;
22502;SDS011;11418;48.118;9.992;2023-08-12T09:57:50;4.22;;;3.53;;
22502;SDS011;11418;48.118;9.992;2023-08-12T10:01:53;28.77;;;5.03;;
22502;SDS011;11418;48.118;9.992;2023-08-12T10:05:54;6.60;;;4.07;;
22502;SDS011;11418;48.118;9.992;2023-08-12T10:09:55;6.47;;;4.43;;
22502;SDS011;11418;48.118;9.992;2023-08-12T10:13:57;10.40;;;5.10;;
22502;SDS011;11418;48.118;9.992;2023-08-12T10:17:58;7.75;;;4.90;;
22502;SDS011;11418;48.118;9.992;2023-08-12T10:21:59;4.60;;;4.20;;
22502;SDS011;11418;48.118;9.992;2023-08-12T10:26:04;4.97;;;4.47;;
22502;SDS011;11418;48.118;9.992;2023-08-12T10:30:07;5.68;;;4.13;;
22502;SDS011;11418;48.118;9.992;2023-08-12T10:34:08;4.00;;;3.60;;
22502;SDS011;11418;48.118;9.992;2023-08-12T10:38:26;7.20;;;4.85;;
22502;SDS011;11418;48.118;9.992;2023-08-12T10:42:43;4.57;;;4.05;;
22502;SDS011;11418;48.118;9.992;2023-08-12T10:46:50;4.15;;;3.72;;
22502;SDS011;11418;48.118;9.992;2023-08-12T10:50:53;4.50;;;3.67;;
22502;SDS011;11418;48.118;9.992;2023-08-12T10:54:55;6.80;;;3.65;;
22502;SDS011;11418;48.118;9.992;2023-08-12T11:03:36;4.03;;;3.50;;
22502;SDS011;11418;48.118;9.992;2023-08-12T11:07:44;4.10;;;3.67;;
22502;SDS011;11418;48.118;9.992;2023-08-12T11:11:46;7.57;;;3.83;;
22502;SDS011;11418;48.118;9.992;2023-08-12T11:16:05;4.82;;;3.45;;
22502;SDS011;11418;48.118;9.992;2023-08-12T11:20:09;4.70;;;3.80;;
22502;SDS011;11418;48.118;9.992;2023-08-12T11:24:11;3.80;;;3.40;;
22502;SDS011;11418;48.118;9.992;2023-08-12T11:28:12;6.72;;;3.53;;
22502;SDS011;11418;48.118;9.992;2023-08-12T11:32:13;3.15;;;2.83;;
22502;SDS011;11418;48.118;9.992;2023-08-12T11:36:13;4.72;;;3.10;;
22502;SDS011;11418;48.118;9.992;2023-08-12T11:40:16;3.25;;;2.95;;
22502;SDS011;11418;48.118;9.992;2023-08-12T11:44:20;4.82;;;3.10;;
22502;SDS011;11418;48.118;9.992;2023-08-12T11:48:22;3.65;;;3.17;;
22502;SDS011;11418;48.118;9.992;2023-08-12T11:52:24;4.03;;;3.58;;
22502;SDS011;11418;48.118;9.992;2023-08-12T11:56:25;4.82;;;3.40;;
22502;SDS011;11418;48.118;9.992;2023-08-12T12:00:26;4.35;;;3.33;;
22502;SDS011;11418;48.118;9.992;2023-08-12T12:04:27;6.00;;;3.47;;
22502;SDS011;11418;48.118;9.992;2023-08-12T12:08:30;5.78;;;4.00;;
22502;SDS011;11418;48.118;9.992;2023-08-12T12:12:34;4.68;;;3.60;;
22502;SDS011;11418;48.118;9.992;2023-08-12T12:16:39;4.25;;;3.42;;
22502;SDS011;11418;48.118;9.992;2023-08-12T12:20:55;6.65;;;3.63;;
22502;SDS011;11418;48.118;9.992;2023-08-12T12:24:59;5.38;;;3.58;;
22502;SDS011;11418;48.118;9.992;2023-08-12T12:29:06;7.28;;;4.38;;
22502;SDS011;11418;48.118;9.992;2023-08-12T12:33:07;8.32;;;3.60;;
22502;SDS011;11418;48.118;9.992;2023-08-12T12:37:07;5.03;;;3.63;;
22502;SDS011;11418;48.118;9.992;2023-08-12T12:41:08;8.57;;;3.58;;
22502;SDS011;11418;48.118;9.992;2023-08-12T12:45:09;7.10;;;4.13;;
22502;SDS011;11418;48.118;9.992;2023-08-12T12:49:09;7.18;;;3.90;;
22502;SDS011;11418;48.118;9.992;2023-08-12T12:53:10;5.20;;;3.67;;
22502;SDS011;11418;48.118;9.992;2023-08-12T12:57:10;7.38;;;3.97;;
22502;SDS011;11418;48.118;9.992;2023-08-12T13:01:11;4.85;;;3.70;;
22502;SDS011;11418;48.118;9.992;2023-08-12T13:05:11;5.60;;;4.07;;
22502;SDS011;11418;48.118;9.992;2023-08-12T13:09:12;7.75;;;3.83;;
22502;SDS011;11418;48.118;9.992;2023-08-12T13:13:14;4.68;;;4.05;;
22502;SDS011;11418;48.118;9.992;2023-08-12T13:17:15;6.88;;;4.35;;
22502;SDS011;11418;48.118;9.992;2023-08-12T13:21:16;6.88;;;3.67;;
22502;SDS011;11418;48.118;9.992;2023-08-12T13:25:16;5.20;;;3.25;;
22502;SDS011;11418;48.118;9.992;2023-08-12T13:29:17;6.15;;;3.58;;
22502;SDS011;11418;48.118;9.992;2023-08-12T13:33:18;6.47;;;3.30;;
22502;SDS011;11418;48.118;9.992;2023-08-12T13:37:18;6.20;;;3.28;;
22502;SDS011;11418;48.118;9.992;2023-08-12T13:41:19;5.35;;;3.00;;
22502;SDS011;11418;48.118;9.992;2023-08-12T13:45:19;5.22;;;2.83;;
22502;SDS011;11418;48.118;9.992;2023-08-12T13:49:20;6.18;;;3.22;;
22502;SDS011;11418;48.118;9.992;2023-08-12T13:53:20;4.68;;;3.17;;
22502;SDS011;11418;48.118;9.992;2023-08-12T13:57:21;4.40;;;3.17;;
22502;SDS011;11418;48.118;9.992;2023-08-12T14:01:21;6.65;;;3.30;;
22502;SDS011;11418;48.118;9.992;2023-08-12T14:05:22;5.22;;;3.30;;
22502;SDS011;11418;48.118;9.992;2023-08-12T14:09:22;5.95;;;3.60;;
22502;SDS011;11418;48.118;9.992;2023-08-12T14:13:23;5.20;;;3.83;;
22502;SDS011;11418;48.118;9.992;2023-08-12T14:17:24;4.97;;;3.35;;
22502;SDS011;11418;48.118;9.992;2023-08-12T14:21:25;5.65;;;3.22;;
22502;SDS011;11418;48.118;9.992;2023-08-12T14:25:26;6.47;;;3.40;;
22502;SDS011;11418;48.118;9.992;2023-08-12T14:29:26;4.68;;;3.30;;
22502;SDS011;11418;48.118;9.992;2023-08-12T14:33:27;5.07;;;3.38;;
22502;SDS011;11418;48.118;9.992;2023-08-12T14:37:29;4.03;;;3.30;;
22502;SDS011;11418;48.118;9.992;2023-08-12T14:41:29;3.70;;;2.65;;
22502;SDS011;11418;48.118;9.992;2023-08-12T14:45:30;5.20;;;3.30;;
22502;SDS011;11418;48.118;9.992;2023-08-12T14:49:30;6.15;;;3.60;;
22502;SDS011;11418;48.118;9.992;2023-08-12T14:53:31;6.47;;;3.58;;
22502;SDS011;11418;48.118;9.992;2023-08-12T14:57:31;5.65;;;3.42;;
22502;SDS011;11418;48.118;9.992;2023-08-12T15:01:32;6.10;;;3.50;;
22502;SDS011;11418;48.118;9.992;2023-08-12T15:05:32;6.18;;;3.40;;
22502;SDS011;11418;48.118;9.992;2023-08-12T15:09:33;4.57;;;3.33;;
22502;SDS011;11418;48.118;9.992;2023-08-12T15:13:33;5.70;;;3.58;;
22502;SDS011;11418;48.118;9.992;2023-08-12T15:17:34;5.05;;;3.15;;
22502;SDS011;11418;48.118;9.992;2023-08-12T15:21:35;5.63;;;3.80;;
22502;SDS011;11418;48.118;9.992;2023-08-12T15:25:35;6.47;;;3.53;;
22502;SDS011;11418;48.118;9.992;2023-08-12T15:29:36;6.15;;;3.25;;
22502;SDS011;11418;48.118;9.992;2023-08-12T15:33:36;8.10;;;3.90;;
22502;SDS011;11418;48.118;9.992;2023-08-12T15:37:37;6.35;;;3.60;;
22502;SDS011;11418;48.118;9.992;2023-08-12T15:41:41;8.05;;;3.55;;
22502;SDS011;11418;48.118;9.992;2023-08-12T15:45:43;5.82;;;3.90;;
22502;SDS011;11418;48.118;9.992;2023-08-12T15:49:43;5.13;;;3.78;;
22502;SDS011;11418;48.118;9.992;2023-08-12T15:53:44;4.63;;;3.90;;
22502;SDS011;11418;48.118;9.992;2023-08-12T15:57:44;5.00;;;3.78;;
22502;SDS011;11418;48.118;9.992;2023-08-12T16:01:45;7.47;;;4.20;;
22502;SDS011;11418;48.118;9.992;2023-08-12T16:05:46;5.70;;;3.80;;
22502;SDS011;11418;48.118;9.992;2023-08-12T16:09:47;6.45;;;3.78;;
22502;SDS011;11418;48.118;9.992;2023-08-12T16:13:47;7.70;;;3.78;;
22502;SDS011;11418;48.118;9.992;2023-08-12T16:17:48;6.22;;;3.80;;
22502;SDS011;11418;48.118;9.992;2023-08-12T16:21:48;5.22;;;3.80;;
22502;SDS011;11418;48.118;9.992;2023-08-12T16:25:49;7.72;;;4.88;;
22502;SDS011;11418;48.118;9.992;2023-08-12T16:29:49;5.05;;;3.42;;
22502;SDS011;11418;48.118;9.992;2023-08-12T16:33:50;14.32;;;8.38;;
22502;SDS011;11418;48.118;9.992;2023-08-12T16:37:50;11.52;;;8.38;;
22502;SDS011;11418;48.118;9.992;2023-08-12T16:41:51;10.65;;;6.07;;
22502;SDS011;11418;48.118;9.992;2023-08-12T16:45:52;3.95;;;3.13;;
22502;SDS011;11418;48.118;9.992;2023-08-12T16:49:52;6.57;;;3.70;;
22502;SDS011;11418;48.118;9.992;2023-08-12T16:53:53;5.63;;;3.40;;
22502;SDS011;11418;48.118;9.992;2023-08-12T16:57:53;7.65;;;4.15;;
22502;SDS011;11418;48.118;9.992;2023-08-12T17:01:54;3.85;;;3.25;;
22502;SDS011;11418;48.118;9.992;2023-08-12T17:05:55;4.63;;;3.60;;
22502;SDS011;11418;48.118;9.992;2023-08-12T17:09:55;5.50;;;3.25;;
22502;SDS011;11418;48.118;9.992;2023-08-12T17:13:57;6.32;;;3.25;;
22502;SDS011;11418;48.118;9.992;2023-08-12T17:17:57;4.75;;;3.90;;
22502;SDS011;11418;48.118;9.992;2023-08-12T17:21:58;5.97;;;3.53;;
22502;SDS011;11418;48.118;9.992;2023-08-12T17:25:58;4.57;;;3.20;;
22502;SDS011;11418;48.118;9.992;2023-08-12T17:29:59;6.00;;;4.00;;
22502;SDS011;11418;48.118;9.992;2023-08-12T17:33:59;8.13;;;4.18;;
22502;SDS011;11418;48.118;9.992;2023-08-12T17:38:00;4.10;;;3.60;;
22502;SDS011;11418;48.118;9.992;2023-08-12T17:42:00;6.07;;;3.60;;
22502;SDS011;11418;48.118;9.992;2023-08-12T17:46:01;6.85;;;3.88;;
22502;SDS011;11418;48.118;9.992;2023-08-12T17:50:02;6.10;;;3.40;;
22502;SDS011;11418;48.118;9.992;2023-08-12T17:54:03;5.28;;;4.05;;
22502;SDS011;11418;48.118;9.992;2023-08-12T17:58:04;7.35;;;4.53;;
22502;SDS011;11418;48.118;9.992;2023-08-12T18:02:05;5.22;;;3.60;;
22502;SDS011;11418;48.118;9.992;2023-08-12T18:06:05;9.27;;;4.13;;
22502;SDS011;11418;48.118;9.992;2023-08-12T18:10:06;9.52;;;4.50;;
22502;SDS011;11418;48.118;9.992;2023-08-12T18:14:07;7.30;;;4.30;;
22502;SDS011;11418;48.118;9.992;2023-08-12T18:18:08;8.27;;;4.53;;
22502;SDS011;11418;48.118;9.992;2023-08-12T18:22:08;13.07;;;4.30;;
22502;SDS011;11418;48.118;9.992;2023-08-12T18:26:09;7.20;;;4.03;;
22502;SDS011;11418;48.118;9.992;2023-08-12T18:30:10;13.32;;;4.80;;
22502;SDS011;11418;48.118;9.992;2023-08-12T18:34:10;7.63;;;3.78;;
22502;SDS011;11418;48.118;9.992;2023-08-12T18:38:11;6.82;;;4.35;;
22502;SDS011;11418;48.118;9.992;2023-08-12T18:42:12;7.07;;;5.30;;
22502;SDS011;11418;48.118;9.992;2023-08-12T18:46:12;7.07;;;5.05;;
22502;SDS011;11418;48.118;9.992;2023-08-12T18:50:13;8.07;;;4.88;;
22502;SDS011;11418;48.118;9.992;2023-08-12T18:54:13;47.22;;;7.20;;
22502;SDS011;11418;48.118;9.992;2023-08-12T18:58:14;8.65;;;5.35;;
22502;SDS011;11418;48.118;9.992;2023-08-12T19:02:14;9.95;;;5.18;;
22502;SDS011;11418;48.118;9.992;2023-08-12T19:06:15;10.10;;;5.20;;
22502;SDS011;11418;48.118;9.992;2023-08-12T19:10:15;12.05;;;4.88;;
22502;SDS011;11418;48.118;9.992;2023-08-12T19:14:16;9.10;;;5.20;;
22502;SDS011;11418;48.118;9.992;2023-08-12T19:18:17;11.18;;;5.18;;
22502;SDS011;11418;48.118;9.992;2023-08-12T19:22:17;13.70;;;5.47;;
22502;SDS011;11418;48.118;9.992;2023-08-12T19:26:19;15.02;;;6.40;;
22502;SDS011;11418;48.118;9.992;2023-08-12T19:30:19;14.95;;;6.28;;
22502;SDS011;11418;48.118;9.992;2023-08-12T19:34:20;10.63;;;5.68;;
22502;SDS011;11418;48.118;9.992;2023-08-12T19:38:20;14.05;;;5.80;;
22502;SDS011;11418;48.118;9.992;2023-08-12T19:42:21;11.57;;;5.88;;
22502;SDS011;11418;48.118;9.992;2023-08-12T19:46:22;8.75;;;5.22;;
22502;SDS011;11418;48.118;9.992;2023-08-12T19:50:22;11.55;;;6.25;;
22502;SDS011;11418;48.118;9.992;2023-08-12T19:54:23;11.80;;;6.13;;
22502;SDS011;11418;48.118;9.992;2023-08-12T19:58:23;8.73;;;5.80;;
22502;SDS011;11418;48.118;9.992;2023-08-12T20:02:24;9.88;;;6.03;;
22502;SDS011;11418;48.118;9.992;2023-08-12T20:06:25;8.75;;;6.05;;
22502;SDS011;11418;48.118;9.992;2023-08-12T20:10:25;10.95;;;6.10;;
22502;SDS011;11418;48.118;9.992;2023-08-12T20:14:26;6.95;;;5.30;;
22502;SDS011;11418;48.118;9.992;2023-08-12T20:18:26;12.18;;;5.60;;
22502;SDS011;11418;48.118;9.992;2023-08-12T20:22:27;10.38;;;5.28;;
22502;SDS011;11418;48.118;9.992;2023-08-12T20:26:28;9.50;;;5.53;;
22502;SDS011;11418;48.118;9.992;2023-08-12T20:30:28;9.50;;;6.13;;
22502;SDS011;11418;48.118;9.992;2023-08-12T20:34:29;12.35;;;7.53;;
22502;SDS011;11418;48.118;9.992;2023-08-12T20:38:29;10.40;;;7.18;;
22502;SDS011;11418;48.118;9.992;2023-08-12T20:42:30;9.40;;;6.63;;
22502;SDS011;11418;48.118;9.992;2023-08-12T20:46:30;11.25;;;6.80;;
22502;SDS011;11418;48.118;9.992;2023-08-12T20:50:31;7.95;;;6.20;;
22502;SDS011;11418;48.118;9.992;2023-08-12T20:54:32;8.48;;;6.18;;
22502;SDS011;11418;48.118;9.992;2023-08-12T20:58:32;13.23;;;6.60;;
22502;SDS011;11418;48.118;9.992;2023-08-12T21:02:33;11.27;;;6.20;;
22502;SDS011;11418;48.118;9.992;2023-08-12T21:06:33;6.72;;;5.80;;
22502;SDS011;11418;48.118;9.992;2023-08-12T21:10:34;11.60;;;6.70;;
22502;SDS011;11418;48.118;9.992;2023-08-12T21:14:34;7.30;;;6.45;;
22502;SDS011;11418;48.118;9.992;2023-08-12T21:18:35;11.75;;;10.32;;
22502;SDS011;11418;48.118;9.992;2023-08-12T21:22:35;11.00;;;6.95;;
22502;SDS011;11418;48.118;9.992;2023-08-12T21:26:36;8.93;;;6.57;;
22502;SDS011;11418;48.118;9.992;2023-08-12T21:30:37;7.88;;;5.85;;
22502;SDS011;11418;48.118;9.992;2023-08-12T21:34:37;7.82;;;5.43;;
22502;SDS011;11418;48.118;9.992;2023-08-12T21:38:38;14.38;;;5.88;;
22502;SDS011;11418;48.118;9.992;2023-08-12T21:42:39;12.07;;;6.28;;
22502;SDS011;11418;48.118;9.992;2023-08-12T21:46:40;10.68;;;6.15;;
22502;SDS011;11418;48.118;9.992;2023-08-12T21:50:41;13.63;;;5.70;;
22502;SDS011;11418;48.118;9.992;2023-08-12T21:54:42;8.50;;;6.18;;
22502;SDS011;11418;48.118;9.992;2023-08-12T21:58:43;7.45;;;6.50;;
22502;SDS011;11418;48.118;9.992;2023-08-12T22:02:44;19.27;;;11.43;;
22502;SDS011;11418;48.118;9.992;2023-08-12T22:06:44;12.00;;;9.63;;
22502;SDS011;11418;48.118;9.992;2023-08-12T22:10:45;9.55;;;6.45;;
22502;SDS011;11418;48.118;9.992;2023-08-12T22:14:45;11.48;;;5.60;;
22502;SDS011;11418;48.118;9.992;2023-08-12T22:18:46;7.35;;;5.05;;
22502;SDS011;11418;48.118;9.992;2023-08-12T22:22:46;5.97;;;4.82;;
22502;SDS011;11418;48.118;9.992;2023-08-12T22:26:47;9.75;;;5.55;;
22502;SDS011;11418;48.118;9.992;2023-08-12T22:30:47;19.98;;;14.13;;
22502;SDS011;11418;48.118;9.992;2023-08-12T22:34:48;36.78;;;26.95;;
22502;SDS011;11418;48.118;9.992;2023-08-12T22:38:48;6.20;;;4.50;;
22502;SDS011;11418;48.118;9.992;2023-08-12T22:42:49;6.47;;;4.20;;
22502;SDS011;11418;48.118;9.992;2023-08-12T22:46:49;6.68;;;4.10;;
22502;SDS011;11418;48.118;9.992;2023-08-12T22:50:50;7.28;;;4.53;;
22502;SDS011;11418;48.118;9.992;2023-08-12T22:54:52;9.55;;;5.00;;
22502;SDS011;11418;48.118;9.992;2023-08-12T22:58:53;9.77;;;5.85;;
22502;SDS011;11418;48.118;9.992;2023-08-12T23:02:55;7.10;;;5.72;;
22502;SDS011;11418;48.118;9.992;2023-08-12T23:06:55;7.15;;;5.03;;
22502;SDS011;11418;48.118;9.992;2023-08-12T23:10:56;8.30;;;4.85;;
22502;SDS011;11418;48.118;9.992;2023-08-12T23:14:57;10.48;;;5.18;;
22502;SDS011;11418;48.118;9.992;2023-08-12T23:18:57;8.35;;;5.22;;
22502;SDS011;11418;48.118;9.992;2023-08-12T23:22:58;7.43;;;5.43;;
22502;SDS011;11418;48.118;9.992;2023-08-12T23:26:58;23.58;;;17.67;;
22502;SDS011;11418;48.118;9.992;2023-08-12T23:30:59;11.70;;;8.52;;
22502;SDS011;11418;48.118;9.992;2023-08-12T23:34:59;16.52;;;10.00;;
22502;SDS011;11418;48.118;9.992;2023-08-12T23:39:00;12.95;;;8.55;;
22502;SDS011;11418;48.118;9.992;2023-08-12T23:43:00;13.40;;;7.22;;
22502;SDS011;11418;48.118;9.992;2023-08-12T23:47:01;9.75;;;7.13;;
22502;SDS011;11418;48.118;9.992;2023-08-12T23:51:02;19.75;;;13.40;;
22502;SDS011;11418;48.118;9.992;2023-08-12T23:55:02;13.95;;;8.82;;
22502;SDS011;11418;48.118;9.992;2023-08-12T23:59:03;11.10;;;7.30;;
